createdAt,value
2022-08-05T00:00:23.210Z,23.93
2022-08-05T00:02:07.711Z,23.97
2022-08-05T00:03:40.063Z,24.03
2022-08-05T00:06:01.666Z,24.03
2022-08-05T00:07:21.763Z,24.02
2022-08-05T00:08:58.311Z,24.03
2022-08-05T00:10:30.028Z,24.03
2022-08-05T00:12:01.786Z,23.90
2022-08-05T00:13:38.816Z,23.67
2022-08-05T00:15:54.031Z,23.38
2022-08-05T00:17:03.684Z,23.13
2022-08-05T00:18:50.758Z,22.94
2022-08-05T00:20:22.535Z,22.81
2022-08-05T00:22:01.230Z,22.68
2022-08-05T00:23:46.717Z,22.75
2022-08-05T00:25:24.758Z,22.76
2022-08-05T00:26:57.717Z,22.71
2022-08-05T00:28:30.466Z,22.71
2022-08-05T00:30:11.602Z,22.72
2022-08-05T00:31:54.400Z,22.51
2022-08-05T00:34:55.988Z,22.55
2022-08-05T00:35:33.168Z,22.60
2022-08-05T00:37:12.979Z,22.55
2022-08-05T00:38:45.791Z,22.65
2022-08-05T00:40:28.374Z,22.72
2022-08-05T00:42:00.879Z,22.86
2022-08-05T00:43:47.302Z,22.96
2022-08-05T00:45:28.101Z,22.94
2022-08-05T00:47:12.005Z,22.92
2022-08-05T00:48:51.458Z,22.88
2022-08-05T00:50:25.391Z,22.82
2022-08-05T00:51:57.523Z,22.76
2022-08-05T00:53:45.421Z,22.69
2022-08-05T00:55:21.381Z,22.57
2022-08-05T00:56:53.692Z,22.22
2022-08-05T00:58:27.330Z,22.23
2022-08-05T00:59:59.433Z,22.03
2022-08-05T01:01:48.199Z,22.00
2022-08-05T01:03:22.832Z,21.97
2022-08-05T01:04:54.993Z,21.95
2022-08-05T01:06:32.401Z,21.89
2022-08-05T01:08:40.069Z,21.77
2022-08-05T01:09:58.101Z,21.84
2022-08-05T01:11:37.180Z,21.79
2022-08-05T01:13:19.430Z,21.87
2022-08-05T01:15:00.069Z,22.00
2022-08-05T01:16:46.000Z,22.10
2022-08-05T01:18:25.270Z,22.06
2022-08-05T01:20:11.385Z,22.05
2022-08-05T01:22:15.482Z,22.04
2022-08-05T01:24:02.986Z,22.13
2022-08-05T01:26:00.191Z,22.01
2022-08-05T01:28:13.689Z,22.08
2022-08-05T01:29:49.538Z,22.16
2022-08-05T01:31:30.403Z,22.25
2022-08-05T01:33:08.633Z,22.33
2022-08-05T01:34:48.567Z,22.21
2022-08-05T01:36:28.190Z,22.04
2022-08-05T01:38:03.084Z,22.00
2022-08-05T01:39:47.178Z,22.11
2022-08-05T01:41:25.541Z,22.25
2022-08-05T01:43:03.686Z,22.29
2022-08-05T01:44:38.882Z,22.35
2022-08-05T01:46:16.493Z,22.41
2022-08-05T01:48:10.386Z,22.23
2022-08-05T01:50:01.667Z,21.91
2022-08-05T01:51:36.187Z,21.72
2022-08-05T01:53:12.776Z,21.66
2022-08-05T01:54:52.832Z,21.65
2022-08-05T01:58:10.808Z,21.58
2022-08-05T01:58:40.944Z,21.48
2022-08-05T02:00:30.389Z,21.47
2022-08-05T02:02:04.522Z,21.28
2022-08-05T02:03:46.631Z,21.18
2022-08-05T02:05:23.389Z,21.10
2022-08-05T02:06:56.415Z,21.00
2022-08-05T02:08:31.623Z,20.52
2022-08-05T02:10:04.825Z,20.16
2022-08-05T02:11:47.896Z,20.02
2022-08-05T02:13:28.197Z,20.07
2022-08-05T02:15:26.196Z,19.92
2022-08-05T02:17:08.196Z,19.90
2022-08-05T02:18:53.295Z,19.68
2022-08-05T02:20:27.888Z,19.51
2022-08-05T02:22:08.968Z,19.50
2022-08-05T02:23:53.399Z,19.56
2022-08-05T02:25:33.369Z,19.58
2022-08-05T02:27:09.145Z,19.55
2022-08-05T02:28:46.259Z,19.54
2022-08-05T02:30:20.469Z,19.49
2022-08-05T02:31:57.116Z,19.53
2022-08-05T02:33:36.184Z,19.47
2022-08-05T02:35:19.151Z,19.44
2022-08-05T02:37:04.354Z,19.42
2022-08-05T02:38:37.757Z,19.45
2022-08-05T02:40:10.549Z,19.51
2022-08-05T02:42:00.429Z,19.56
2022-08-05T02:43:34.542Z,19.69
2022-08-05T02:45:28.999Z,19.85
2022-08-05T02:47:22.444Z,20.11
2022-08-05T02:48:55.804Z,20.29
2022-08-05T02:50:29.134Z,20.51
2022-08-05T02:52:03.807Z,20.70
2022-08-05T02:53:40.493Z,20.86
2022-08-05T02:55:13.484Z,20.95
2022-08-05T02:56:46.056Z,21.01
2022-08-05T02:58:20.697Z,20.99
2022-08-05T02:59:54.184Z,20.97
2022-08-05T03:01:29.376Z,21.02
2022-08-05T03:03:02.221Z,21.07
2022-08-05T03:04:40.595Z,21.07
2022-08-05T03:06:56.336Z,21.13
2022-08-05T03:08:08.632Z,21.15
2022-08-05T03:09:51.599Z,21.16
2022-08-05T03:11:56.678Z,21.18
2022-08-05T03:13:18.029Z,21.19
2022-08-05T03:14:49.710Z,21.16
2022-08-05T03:16:21.971Z,21.25
2022-08-05T03:17:57.876Z,21.31
2022-08-05T03:19:33.884Z,21.31
2022-08-05T03:21:07.745Z,21.32
2022-08-05T03:22:46.789Z,21.36
2022-08-05T03:24:29.598Z,21.35
2022-08-05T03:26:30.133Z,21.41
2022-08-05T03:27:59.595Z,21.51
2022-08-05T03:29:45.959Z,21.57
2022-08-05T03:31:55.813Z,21.63
2022-08-05T03:33:18.971Z,21.68
2022-08-05T03:34:52.321Z,21.69
2022-08-05T03:36:30.514Z,21.69
2022-08-05T03:38:02.761Z,21.68
2022-08-05T03:39:38.303Z,21.72
2022-08-05T03:41:26.188Z,21.76
2022-08-05T03:43:58.663Z,21.80
2022-08-05T03:44:57.049Z,21.85
2022-08-05T03:46:30.053Z,21.87
2022-08-05T03:48:05.132Z,21.81
2022-08-05T03:49:51.636Z,21.59
2022-08-05T03:52:50.546Z,21.42
2022-08-05T03:55:53.009Z,21.46
2022-08-05T03:56:05.809Z,21.45
2022-08-05T03:57:28.993Z,21.38
2022-08-05T03:59:20.458Z,21.21
2022-08-05T04:00:55.620Z,21.04
2022-08-05T04:02:38.289Z,21.02
2022-08-05T04:04:21.203Z,20.93
2022-08-05T04:05:55.169Z,20.91
2022-08-05T04:07:30.521Z,21.02
2022-08-05T04:09:08.712Z,21.16
2022-08-05T04:10:41.545Z,21.29
2022-08-05T04:12:24.746Z,21.29
2022-08-05T04:13:56.717Z,21.23
2022-08-05T04:15:35.906Z,21.01
2022-08-05T04:17:09.297Z,20.86
2022-08-05T04:18:45.601Z,20.74
2022-08-05T04:20:25.511Z,20.82
2022-08-05T04:22:08.964Z,20.95
2022-08-05T04:23:57.137Z,21.11
2022-08-05T04:25:57.928Z,21.21
2022-08-05T04:27:33.209Z,21.25
2022-08-05T04:29:14.383Z,21.25
2022-08-05T04:30:46.630Z,21.10
2022-08-05T04:32:29.662Z,20.96
2022-08-05T04:34:31.139Z,20.88
2022-08-05T04:36:10.860Z,20.83
2022-08-05T04:38:01.536Z,20.84
2022-08-05T04:39:38.012Z,20.81
2022-08-05T04:41:11.126Z,20.84
2022-08-05T04:42:42.821Z,20.83
2022-08-05T04:44:29.002Z,20.83
2022-08-05T04:46:04.027Z,20.70
2022-08-05T04:47:38.731Z,20.60
2022-08-05T04:49:18.871Z,20.73
2022-08-05T04:51:03.513Z,20.85
2022-08-05T04:52:42.756Z,20.91
2022-08-05T04:54:19.735Z,20.90
2022-08-05T04:56:32.810Z,20.87
2022-08-05T04:57:47.755Z,21.04
2022-08-05T04:59:23.913Z,21.17
2022-08-05T05:01:11.054Z,21.27
2022-08-05T05:02:43.502Z,21.39
2022-08-05T05:04:15.368Z,21.45
2022-08-05T05:06:36.165Z,21.51
2022-08-05T05:07:39.210Z,21.59
2022-08-05T05:09:25.857Z,21.60
2022-08-05T05:10:57.833Z,21.57
2022-08-05T05:12:29.719Z,21.58
2022-08-05T05:14:03.311Z,21.58
2022-08-05T05:15:56.141Z,21.48
2022-08-05T05:17:56.949Z,21.40
2022-08-05T05:19:19.176Z,21.45
2022-08-05T05:20:55.199Z,21.50
2022-08-05T05:22:27.057Z,21.50
2022-08-05T05:24:03.951Z,21.50
2022-08-05T05:25:43.424Z,21.51
2022-08-05T05:27:19.523Z,21.36
2022-08-05T05:28:52.794Z,21.33
2022-08-05T05:30:31.108Z,21.38
2022-08-05T05:32:06.291Z,21.19
2022-08-05T05:33:59.222Z,21.05
2022-08-05T05:35:37.683Z,21.05
2022-08-05T05:37:09.956Z,21.03
2022-08-05T05:38:41.608Z,21.01
2022-08-05T05:40:15.513Z,20.80
2022-08-05T05:41:54.470Z,20.88
2022-08-05T05:43:54.290Z,20.80
2022-08-05T05:45:19.468Z,20.70
2022-08-05T05:46:51.963Z,20.71
2022-08-05T05:48:27.655Z,20.71
2022-08-05T05:50:01.550Z,20.71
2022-08-05T05:51:50.403Z,20.59
2022-08-05T05:53:23.060Z,20.52
2022-08-05T05:54:54.822Z,20.39
2022-08-05T05:56:32.217Z,20.35
2022-08-05T05:58:07.062Z,20.31
2022-08-05T05:59:40.909Z,20.46
2022-08-05T06:01:15.511Z,20.52
2022-08-05T06:02:50.529Z,20.64
2022-08-05T06:04:22.394Z,20.82
2022-08-05T06:05:55.673Z,20.92
2022-08-05T06:07:41.710Z,21.00
2022-08-05T06:09:17.103Z,21.11
2022-08-05T06:10:52.810Z,21.16
2022-08-05T06:12:27.162Z,21.14
2022-08-05T06:14:01.306Z,21.20
2022-08-05T06:16:30.748Z,21.15
2022-08-05T06:17:30.917Z,21.08
2022-08-05T06:19:05.954Z,21.09
2022-08-05T06:20:39.305Z,21.08
2022-08-05T06:22:11.103Z,21.20
2022-08-05T06:23:43.609Z,21.24
2022-08-05T06:25:24.551Z,21.22
2022-08-05T06:26:56.603Z,21.11
2022-08-05T06:28:28.877Z,21.06
2022-08-05T06:30:04.179Z,21.04
2022-08-05T06:31:39.521Z,21.06
2022-08-05T06:33:19.049Z,21.01
2022-08-05T06:34:53.429Z,20.82
2022-08-05T06:36:26.141Z,20.75
2022-08-05T06:37:59.535Z,20.75
2022-08-05T06:39:34.004Z,20.58
2022-08-05T06:41:07.814Z,20.57
2022-08-05T06:42:40.387Z,20.57
2022-08-05T06:44:13.169Z,20.49
2022-08-05T06:46:03.842Z,20.44
2022-08-05T06:48:36.459Z,20.46
2022-08-05T06:50:00.282Z,20.55
2022-08-05T06:51:23.805Z,20.65
2022-08-05T06:53:11.172Z,20.75
2022-08-05T06:54:43.570Z,20.77
2022-08-05T06:56:26.377Z,20.84
2022-08-05T06:58:11.557Z,20.86
2022-08-05T06:59:55.139Z,20.76
2022-08-05T07:01:32.765Z,20.74
2022-08-05T07:03:04.670Z,20.68
2022-08-05T07:04:41.490Z,20.81
2022-08-05T07:06:15.151Z,20.93
2022-08-05T07:07:48.934Z,20.91
2022-08-05T07:09:20.806Z,20.83
2022-08-05T07:10:56.773Z,20.72
2022-08-05T07:12:49.073Z,20.82
2022-08-05T07:14:39.569Z,20.97
2022-08-05T07:17:59.178Z,20.97
2022-08-05T07:18:28.930Z,20.96
2022-08-05T07:20:32.822Z,20.99
2022-08-05T07:22:00.148Z,20.96
2022-08-05T07:23:33.138Z,20.93
2022-08-05T07:25:23.620Z,21.03
2022-08-05T07:26:57.866Z,21.05
2022-08-05T07:28:31.106Z,21.09
2022-08-05T07:30:24.083Z,21.10
2022-08-05T07:31:55.670Z,21.12
2022-08-05T07:33:36.855Z,21.18
2022-08-05T07:36:05.158Z,21.22
2022-08-05T07:37:01.714Z,21.22
2022-08-05T07:38:43.217Z,21.11
2022-08-05T07:40:31.914Z,21.07
2022-08-05T07:42:13.149Z,21.04
2022-08-05T07:43:47.019Z,21.03
2022-08-05T07:45:19.045Z,20.93
2022-08-05T07:47:10.762Z,20.92
2022-08-05T07:49:03.821Z,20.91
2022-08-05T07:50:37.400Z,20.87
2022-08-05T07:52:10.789Z,20.91
2022-08-05T07:53:50.021Z,20.98
2022-08-05T07:56:05.795Z,20.94
2022-08-05T07:57:41.897Z,20.83
2022-08-05T07:59:08.555Z,20.87
2022-08-05T08:00:40.422Z,20.82
2022-08-05T08:02:15.916Z,20.86
2022-08-05T08:03:51.379Z,20.81
2022-08-05T08:05:23.212Z,20.76
2022-08-05T08:07:00.866Z,20.83
2022-08-05T08:08:37.282Z,20.88
2022-08-05T08:10:09.139Z,20.80
2022-08-05T08:11:40.808Z,20.76
2022-08-05T08:13:22.166Z,20.62
2022-08-05T08:15:02.752Z,20.68
2022-08-05T08:16:50.271Z,20.66
2022-08-05T08:18:23.240Z,20.61
2022-08-05T08:20:21.242Z,20.69
2022-08-05T08:21:48.168Z,20.74
2022-08-05T08:24:03.315Z,20.71
2022-08-05T08:25:15.853Z,20.80
2022-08-05T08:26:50.702Z,20.88
2022-08-05T08:28:36.445Z,20.89
2022-08-05T08:30:30.074Z,20.90
2022-08-05T08:32:03.962Z,20.94
2022-08-05T08:33:38.257Z,20.90
2022-08-05T08:35:13.730Z,20.96
2022-08-05T08:36:48.765Z,20.99
2022-08-05T08:38:35.486Z,21.06
2022-08-05T08:40:08.618Z,21.14
2022-08-05T08:41:51.648Z,21.21
2022-08-05T08:45:20.396Z,21.22
2022-08-05T08:45:27.041Z,21.32
2022-08-05T08:47:03.067Z,21.33
2022-08-05T08:49:03.089Z,21.27
2022-08-05T08:50:52.563Z,21.40
2022-08-05T08:52:24.957Z,21.41
2022-08-05T08:53:57.079Z,21.42
2022-08-05T08:56:01.608Z,21.49
2022-08-05T08:57:22.686Z,21.45
2022-08-05T08:58:55.157Z,21.39
2022-08-05T09:00:30.410Z,21.36
2022-08-05T09:02:08.425Z,21.36
2022-08-05T09:03:45.242Z,21.38
2022-08-05T09:05:18.414Z,21.33
2022-08-05T09:07:10.683Z,21.35
2022-08-05T09:08:51.234Z,21.38
2022-08-05T09:10:27.827Z,21.41
2022-08-05T09:12:13.374Z,21.49
2022-08-05T09:14:10.065Z,21.58
2022-08-05T09:15:46.688Z,21.73
2022-08-05T09:17:40.776Z,21.72
2022-08-05T09:19:12.050Z,21.59
2022-08-05T09:20:47.072Z,21.49
2022-08-05T09:22:30.812Z,21.51
2022-08-05T09:24:04.942Z,21.55
2022-08-05T09:26:00.002Z,21.54
2022-08-05T09:28:05.788Z,21.49
2022-08-05T09:29:47.632Z,21.61
2022-08-05T09:31:44.192Z,21.69
2022-08-05T09:33:15.339Z,21.76
2022-08-05T09:34:50.477Z,21.82
2022-08-05T09:36:27.769Z,21.83
2022-08-05T09:38:12.959Z,21.81
2022-08-05T09:39:55.893Z,21.65
2022-08-05T09:41:28.684Z,21.64
2022-08-05T09:43:08.590Z,21.62
2022-08-05T09:44:43.058Z,21.54
2022-08-05T09:46:27.401Z,21.57
2022-08-05T09:47:59.842Z,21.68
2022-08-05T09:49:54.561Z,21.78
2022-08-05T09:51:32.729Z,21.92
2022-08-05T09:53:13.038Z,21.96
2022-08-05T09:54:58.698Z,22.00
2022-08-05T09:56:35.725Z,22.03
2022-08-05T09:58:10.847Z,22.05
2022-08-05T09:59:47.686Z,22.15
2022-08-05T10:01:31.636Z,22.23
2022-08-05T10:03:09.895Z,22.30
2022-08-05T10:04:43.876Z,22.38
2022-08-05T10:06:19.693Z,22.10
2022-08-05T10:08:34.719Z,21.92
2022-08-05T10:10:14.108Z,21.78
2022-08-05T10:11:47.262Z,22.07
2022-08-05T10:13:31.698Z,22.21
2022-08-05T10:15:21.751Z,21.85
2022-08-05T10:16:57.555Z,21.88
2022-08-05T10:18:31.994Z,21.86
2022-08-05T10:20:10.890Z,22.02
2022-08-05T10:21:45.545Z,22.31
2022-08-05T10:23:34.717Z,22.57
2022-08-05T10:25:14.225Z,22.73
2022-08-05T10:26:51.996Z,22.74
2022-08-05T10:28:29.109Z,22.51
2022-08-05T10:30:06.913Z,22.20
2022-08-05T10:32:52.564Z,22.02
2022-08-05T10:33:45.503Z,21.99
2022-08-05T10:35:33.863Z,22.18
2022-08-05T10:37:13.147Z,22.35
2022-08-05T10:38:48.276Z,22.61
2022-08-05T10:40:29.509Z,22.72
2022-08-05T10:42:07.821Z,22.58
2022-08-05T10:43:50.830Z,22.54
2022-08-05T10:45:40.164Z,22.77
2022-08-05T10:47:26.949Z,22.85
2022-08-05T10:49:10.000Z,22.96
2022-08-05T10:50:57.812Z,23.07
2022-08-05T10:52:49.600Z,23.26
2022-08-05T10:54:28.152Z,23.35
2022-08-05T10:56:21.038Z,23.46
2022-08-05T10:58:11.371Z,23.54
2022-08-05T11:00:01.819Z,23.74
2022-08-05T11:01:55.145Z,23.83
2022-08-05T11:03:29.232Z,24.00
2022-08-05T11:05:05.136Z,24.10
2022-08-05T11:07:04.840Z,24.22
2022-08-05T11:08:39.215Z,24.33
2022-08-05T11:10:22.559Z,24.32
2022-08-05T11:12:00.919Z,24.45
2022-08-05T11:13:58.116Z,24.48
2022-08-05T11:16:00.011Z,24.56
2022-08-05T11:17:59.193Z,24.56
2022-08-05T11:20:10.433Z,24.63
2022-08-05T11:21:32.316Z,24.70
2022-08-05T11:24:05.601Z,24.66
2022-08-05T11:26:08.462Z,24.66
2022-08-05T11:27:51.014Z,24.70
2022-08-05T11:29:42.687Z,24.80
2022-08-05T11:31:57.537Z,24.92
2022-08-05T11:33:34.591Z,25.03
2022-08-05T11:36:07.633Z,25.10
2022-08-05T11:38:28.305Z,25.22
2022-08-05T11:40:03.705Z,25.34
2022-08-05T11:42:01.070Z,25.44
2022-08-05T11:44:00.786Z,25.39
2022-08-05T11:45:23.217Z,25.45
2022-08-05T11:47:19.942Z,25.49
2022-08-05T11:48:54.132Z,25.45
2022-08-05T11:50:26.249Z,24.93
2022-08-05T11:51:58.093Z,24.52
2022-08-05T11:53:33.743Z,24.26
2022-08-05T11:55:13.278Z,24.37
2022-08-05T11:56:50.287Z,24.63
2022-08-05T11:58:34.378Z,24.97
2022-08-05T12:00:25.866Z,25.19
2022-08-05T12:02:01.789Z,25.35
2022-08-05T12:03:41.911Z,25.47
2022-08-05T12:05:28.826Z,25.43
2022-08-05T12:07:09.218Z,25.40
2022-08-05T12:08:50.052Z,25.48
2022-08-05T12:10:38.453Z,25.53
2022-08-05T12:12:22.565Z,25.59
2022-08-05T12:14:04.260Z,25.67
2022-08-05T12:15:38.700Z,25.67
2022-08-05T12:18:02.693Z,25.68
2022-08-05T12:19:08.299Z,25.80
2022-08-05T12:20:40.689Z,25.97
2022-08-05T12:22:13.772Z,26.10
2022-08-05T12:23:53.092Z,26.15
2022-08-05T12:25:28.420Z,25.96
2022-08-05T12:27:09.422Z,25.86
2022-08-05T12:28:44.034Z,25.67
2022-08-05T12:30:22.826Z,25.68
2022-08-05T12:32:09.709Z,25.74
2022-08-05T12:33:41.925Z,25.86
2022-08-05T12:35:16.803Z,25.86
2022-08-05T12:36:55.381Z,25.82
2022-08-05T12:38:30.225Z,25.66
2022-08-05T12:40:10.662Z,25.64
2022-08-05T12:41:43.538Z,25.28
2022-08-05T12:43:20.939Z,25.43
2022-08-05T12:45:01.180Z,25.61
2022-08-05T12:46:36.592Z,25.93
2022-08-05T12:48:32.724Z,26.25
2022-08-05T12:50:13.511Z,26.65
2022-08-05T12:52:13.050Z,26.80
2022-08-05T12:53:42.886Z,26.96
2022-08-05T12:55:23.517Z,27.02
2022-08-05T12:56:58.344Z,27.10
2022-08-05T12:58:48.634Z,27.26
2022-08-05T13:02:02.674Z,27.49
2022-08-05T13:02:21.101Z,27.57
2022-08-05T13:04:03.195Z,27.59
2022-08-05T13:05:39.413Z,27.31
2022-08-05T13:07:17.287Z,27.07
2022-08-05T13:08:51.545Z,26.33
2022-08-05T13:10:25.175Z,25.92
2022-08-05T13:12:03.834Z,25.97
2022-08-05T13:14:06.342Z,25.80
2022-08-05T13:15:41.941Z,25.83
2022-08-05T13:17:31.977Z,25.76
2022-08-05T13:19:15.987Z,25.67
2022-08-05T13:20:49.287Z,25.57
2022-08-05T13:22:28.025Z,25.43
2022-08-05T13:24:01.765Z,25.28
2022-08-05T13:25:51.982Z,24.75
2022-08-05T13:27:38.403Z,23.95
2022-08-05T13:29:11.020Z,23.63
2022-08-05T13:30:51.151Z,23.34
2022-08-05T13:32:33.005Z,23.49
2022-08-05T13:34:25.452Z,23.79
2022-08-05T13:35:57.585Z,24.04
2022-08-05T13:37:34.449Z,24.25
2022-08-05T13:39:08.596Z,24.49
2022-08-05T13:40:59.876Z,24.71
2022-08-05T13:42:31.923Z,24.62
2022-08-05T13:44:04.167Z,24.69
2022-08-05T13:45:38.688Z,24.79
2022-08-05T13:47:35.649Z,24.91
2022-08-05T13:49:10.443Z,24.99
2022-08-05T13:50:43.826Z,24.86
2022-08-05T13:52:18.238Z,24.83
2022-08-05T13:53:50.175Z,24.89
2022-08-05T13:55:41.261Z,24.98
2022-08-05T13:57:16.293Z,25.07
2022-08-05T13:58:53.155Z,25.05
2022-08-05T14:00:27.156Z,24.94
2022-08-05T14:02:00.806Z,24.83
2022-08-05T14:03:32.869Z,24.77
2022-08-05T14:05:11.708Z,24.78
2022-08-05T14:06:47.713Z,24.86
2022-08-05T14:08:27.732Z,24.92
2022-08-05T14:10:00.796Z,25.00
2022-08-05T14:11:32.661Z,25.12
2022-08-05T14:13:25.429Z,25.33
2022-08-05T14:14:58.348Z,25.36
2022-08-05T14:16:30.150Z,25.28
2022-08-05T14:18:02.912Z,25.20
2022-08-05T14:19:54.214Z,25.17
2022-08-05T14:22:10.245Z,25.09
2022-08-05T14:23:25.015Z,24.87
2022-08-05T14:24:59.449Z,24.94
2022-08-05T14:26:35.777Z,25.19
2022-08-05T14:28:15.959Z,25.53
2022-08-05T14:29:59.233Z,25.81
2022-08-05T14:32:03.673Z,26.10
2022-08-05T14:33:23.880Z,26.52
2022-08-05T14:34:56.861Z,26.76
2022-08-05T14:36:31.038Z,26.97
2022-08-05T14:38:03.211Z,26.46
2022-08-05T14:39:49.277Z,26.49
2022-08-05T14:41:32.393Z,26.51
2022-08-05T14:43:04.566Z,26.53
2022-08-05T14:44:42.997Z,26.73
2022-08-05T14:46:14.881Z,26.71
2022-08-05T14:48:03.475Z,26.71
2022-08-05T14:49:59.083Z,26.75
2022-08-05T14:51:42.635Z,26.86
2022-08-05T14:53:15.647Z,26.96
2022-08-05T14:54:52.840Z,27.08
2022-08-05T14:56:25.249Z,27.07
2022-08-05T14:57:57.753Z,27.12
2022-08-05T14:59:35.344Z,27.10
2022-08-05T15:01:16.093Z,27.21
2022-08-05T15:02:49.447Z,27.41
2022-08-05T15:04:22.890Z,27.50
2022-08-05T15:06:07.695Z,27.66
2022-08-05T15:08:06.188Z,27.82
2022-08-05T15:09:53.884Z,27.79
2022-08-05T15:11:51.681Z,27.79
2022-08-05T15:13:18.205Z,27.91
2022-08-05T15:14:50.754Z,27.97
2022-08-05T15:16:22.561Z,28.00
2022-08-05T15:17:54.541Z,27.88
2022-08-05T15:19:26.515Z,27.87
2022-08-05T15:20:58.234Z,27.69
2022-08-05T15:22:40.124Z,27.54
2022-08-05T15:24:17.959Z,27.23
2022-08-05T15:25:55.887Z,27.25
2022-08-05T15:27:35.894Z,27.41
2022-08-05T15:29:07.932Z,27.51
2022-08-05T15:30:39.834Z,27.30
2022-08-05T15:32:11.578Z,27.06
2022-08-05T15:34:19.025Z,26.86
2022-08-05T15:35:36.001Z,26.84
2022-08-05T15:37:14.750Z,26.75
2022-08-05T15:38:47.969Z,26.74
2022-08-05T15:41:03.884Z,26.72
2022-08-05T15:42:49.812Z,26.71
2022-08-05T15:44:05.559Z,26.70
2022-08-05T15:45:38.327Z,26.50
2022-08-05T15:47:11.635Z,26.55
2022-08-05T15:48:52.821Z,26.60
2022-08-05T15:50:32.420Z,26.71
2022-08-05T15:52:13.177Z,27.07
2022-08-05T15:53:57.030Z,27.52
2022-08-05T15:56:03.043Z,27.81
2022-08-05T15:57:25.491Z,28.00
2022-08-05T15:59:04.777Z,28.02
2022-08-05T16:00:50.278Z,27.89
2022-08-05T16:02:28.803Z,27.41
2022-08-05T16:04:00.893Z,26.80
2022-08-05T16:05:32.720Z,26.56
2022-08-05T16:07:04.597Z,26.35
2022-08-05T16:08:37.689Z,26.43
2022-08-05T16:10:11.652Z,26.52
2022-08-05T16:11:49.685Z,26.55
2022-08-05T16:13:32.041Z,26.63
2022-08-05T16:15:07.062Z,26.54
2022-08-05T16:16:41.347Z,26.54
2022-08-05T16:18:13.108Z,26.59
2022-08-05T16:20:05.323Z,26.62
2022-08-05T16:21:58.645Z,26.63
2022-08-05T16:23:32.896Z,26.68
2022-08-05T16:25:21.408Z,26.64
2022-08-05T16:26:56.338Z,26.55
2022-08-05T16:28:28.229Z,26.47
2022-08-05T16:30:00.199Z,26.34
2022-08-05T16:31:56.715Z,26.26
2022-08-05T16:33:23.898Z,26.21
2022-08-05T16:34:59.081Z,26.22
2022-08-05T16:36:30.945Z,26.16
2022-08-05T16:38:24.298Z,26.10
2022-08-05T16:40:04.688Z,26.03
2022-08-05T16:42:14.561Z,25.89
2022-08-05T16:43:35.269Z,25.80
2022-08-05T16:46:04.608Z,25.85
2022-08-05T16:46:59.935Z,25.93
2022-08-05T16:48:33.394Z,25.83
2022-08-05T16:50:09.947Z,25.88
2022-08-05T16:51:51.334Z,25.88
2022-08-05T16:53:32.171Z,25.99
2022-08-05T16:55:05.411Z,25.89
2022-08-05T16:56:38.120Z,25.90
2022-08-05T16:58:13.571Z,25.72
2022-08-05T17:00:01.393Z,25.77
2022-08-05T17:01:54.588Z,25.72
2022-08-05T17:03:26.608Z,25.73
2022-08-05T17:04:59.658Z,25.73
2022-08-05T17:06:31.830Z,25.62
2022-08-05T17:08:03.886Z,25.62
2022-08-05T17:09:57.699Z,25.65
2022-08-05T17:11:27.686Z,25.59
2022-08-05T17:12:59.383Z,25.56
2022-08-05T17:14:34.450Z,25.65
2022-08-05T17:16:32.714Z,25.60
2022-08-05T17:18:02.790Z,25.55
2022-08-05T17:19:34.861Z,25.48
2022-08-05T17:21:06.553Z,25.44
2022-08-05T17:22:38.291Z,25.38
2022-08-05T17:24:30.196Z,25.41
2022-08-05T17:26:04.443Z,25.33
2022-08-05T17:27:36.268Z,25.34
2022-08-05T17:29:10.081Z,25.32
2022-08-05T17:30:51.792Z,25.29
2022-08-05T17:32:25.351Z,25.09
2022-08-05T17:33:58.683Z,25.12
2022-08-05T17:35:32.575Z,24.97
2022-08-05T17:37:40.486Z,24.99
2022-08-05T17:39:23.961Z,25.04
2022-08-05T17:41:01.554Z,24.90
2022-08-05T17:42:34.134Z,24.90
2022-08-05T17:44:13.640Z,24.80
2022-08-05T17:45:48.383Z,24.90
2022-08-05T17:47:25.865Z,24.95
2022-08-05T17:48:58.103Z,24.89
2022-08-05T17:50:30.834Z,24.95
2022-08-05T17:52:02.804Z,24.98
2022-08-05T17:53:35.916Z,25.00
2022-08-05T17:55:10.304Z,24.96
2022-08-05T17:56:42.731Z,24.85
2022-08-05T17:58:16.733Z,24.75
2022-08-05T17:59:53.983Z,24.73
2022-08-05T18:01:49.598Z,24.59
2022-08-05T18:03:56.538Z,24.36
2022-08-05T18:05:18.123Z,24.13
2022-08-05T18:06:50.113Z,24.08
2022-08-05T18:08:21.961Z,24.01
2022-08-05T18:10:00.465Z,23.99
2022-08-05T18:11:34.021Z,24.03
2022-08-05T18:13:07.695Z,24.09
2022-08-05T18:14:44.313Z,24.08
2022-08-05T18:16:20.447Z,24.11
2022-08-05T18:17:58.712Z,24.04
2022-08-05T18:19:35.979Z,23.98
2022-08-05T18:21:13.109Z,23.94
2022-08-05T18:22:54.478Z,23.84
2022-08-05T18:24:29.021Z,23.81
2022-08-05T18:26:01.133Z,23.75
2022-08-05T18:27:33.987Z,23.79
2022-08-05T18:29:10.390Z,23.87
2022-08-05T18:30:42.318Z,23.89
2022-08-05T18:32:14.175Z,23.89
2022-08-05T18:33:49.710Z,23.81
2022-08-05T18:35:49.366Z,23.78
2022-08-05T18:37:16.960Z,23.68
2022-08-05T18:39:09.732Z,23.63
2022-08-05T18:41:55.605Z,23.53
2022-08-05T18:42:46.450Z,23.47
2022-08-05T18:44:33.304Z,23.45
2022-08-05T18:46:07.322Z,23.49
2022-08-05T18:47:41.559Z,23.44
2022-08-05T18:49:57.398Z,23.46
2022-08-05T18:52:05.558Z,23.42
2022-08-05T18:53:45.737Z,23.31
2022-08-05T18:55:22.224Z,23.31
2022-08-05T18:56:54.135Z,23.30
2022-08-05T18:58:28.688Z,23.16
2022-08-05T19:00:04.058Z,23.17
2022-08-05T19:01:47.950Z,23.17
2022-08-05T19:03:52.868Z,23.13
2022-08-05T19:06:12.873Z,23.02
2022-08-05T19:07:16.929Z,23.02
2022-08-05T19:08:48.681Z,22.95
2022-08-05T19:10:28.190Z,22.94
2022-08-05T19:12:01.628Z,22.89
2022-08-05T19:13:36.005Z,22.79
2022-08-05T19:15:56.594Z,22.75
2022-08-05T19:17:02.590Z,22.61
2022-08-05T19:18:38.586Z,22.61
2022-08-05T19:20:12.139Z,22.55
2022-08-05T19:21:43.897Z,22.46
2022-08-05T19:24:04.286Z,22.38
2022-08-05T19:25:09.300Z,22.31
2022-08-05T19:26:43.747Z,22.28
2022-08-05T19:28:27.538Z,22.24
2022-08-05T19:29:59.371Z,22.30
2022-08-05T19:31:33.739Z,22.25
2022-08-05T19:33:17.146Z,22.25
2022-08-05T19:35:09.255Z,22.26
2022-08-05T19:36:44.110Z,22.19
2022-08-05T19:38:24.453Z,22.17
2022-08-05T19:39:58.790Z,22.12
2022-08-05T19:41:58.149Z,22.03
2022-08-05T19:44:03.911Z,22.02
2022-08-05T19:45:14.752Z,21.99
2022-08-05T19:46:47.005Z,21.88
2022-08-05T19:48:18.752Z,21.87
2022-08-05T19:49:51.492Z,21.74
2022-08-05T19:52:04.552Z,21.74
2022-08-05T19:54:05.320Z,21.79
2022-08-05T19:56:15.521Z,21.63
2022-08-05T19:57:09.445Z,21.56
2022-08-05T19:58:54.216Z,21.60
2022-08-05T20:00:26.922Z,21.59
2022-08-05T20:01:58.901Z,21.52
2022-08-05T20:03:38.827Z,21.35
2022-08-05T20:05:16.460Z,21.32
2022-08-05T20:06:56.568Z,21.37
2022-08-05T20:08:31.202Z,21.40
2022-08-05T20:10:08.266Z,21.38
2022-08-05T20:11:48.178Z,21.36
2022-08-05T20:13:30.033Z,21.38
2022-08-05T20:15:12.272Z,21.31
2022-08-05T20:16:45.563Z,21.25
2022-08-05T20:18:33.156Z,21.23
2022-08-05T20:20:09.505Z,21.17
2022-08-05T20:21:43.439Z,21.03
2022-08-05T20:23:16.732Z,20.99
2022-08-05T20:24:53.113Z,20.99
2022-08-05T20:26:41.561Z,20.97
2022-08-05T20:28:15.640Z,20.94
2022-08-05T20:30:10.860Z,20.95
2022-08-05T20:31:53.540Z,20.85
2022-08-05T20:33:27.294Z,20.78
2022-08-05T20:35:03.128Z,20.74
2022-08-05T20:36:34.919Z,20.75
2022-08-05T20:38:11.552Z,20.67
2022-08-05T20:40:01.433Z,20.59
2022-08-05T20:41:43.129Z,20.49
2022-08-05T20:43:16.697Z,20.37
2022-08-05T20:45:16.847Z,20.19
2022-08-05T20:46:59.031Z,20.10
2022-08-05T20:48:30.980Z,20.01
2022-08-05T20:50:05.337Z,19.98
2022-08-05T20:51:42.055Z,19.91
2022-08-05T20:53:15.978Z,19.80
2022-08-05T20:55:56.503Z,19.73
2022-08-05T20:57:42.213Z,19.68
2022-08-05T20:59:19.381Z,19.64
2022-08-05T21:00:59.116Z,19.58
2022-08-05T21:02:39.593Z,19.57
2022-08-05T21:04:20.521Z,19.46
2022-08-05T21:05:59.273Z,19.40
2022-08-05T21:07:45.652Z,19.37
2022-08-05T21:09:29.695Z,19.40
2022-08-05T21:11:09.013Z,19.40
2022-08-05T21:12:41.094Z,19.36
2022-08-05T21:14:35.068Z,19.38
2022-08-05T21:16:08.234Z,19.43
2022-08-05T21:17:39.942Z,19.42
2022-08-05T21:19:13.586Z,19.42
2022-08-05T21:20:47.043Z,19.44
2022-08-05T21:22:33.210Z,19.36
2022-08-05T21:24:09.845Z,19.31
2022-08-05T21:25:45.080Z,19.24
2022-08-05T21:27:25.225Z,19.20
2022-08-05T21:29:03.916Z,19.14
2022-08-05T21:30:37.062Z,19.06
2022-08-05T21:32:09.014Z,19.04